Time;durP1;ratioP1;P1;durP2;ratioP2;P2;SDS_P1;SDS_P2;PMS_P1;PMS_P2;Temp;Humidity;BMP_temperature;BMP_pressure;BME280_temperature;BME280_humidity;BME280_pressure;Samples;Min_cycle;Max_cycle;Signal;HPM_P1;HPM_P2
2022/03/09 00:00:13;;;;;;;1.50;1.50;;;3.00;99.90;;;;;;5067762;28;20234;-61
2022/03/09 00:53:13;;;;;;;1.98;1.73;;;2.70;99.90;;;;;;5079206;22;20231;-64
2022/03/09 00:55:41;;;;;;;1.60;1.50;;;2.60;99.90;;;;;;5064729;28;20548;-64
2022/03/09 00:58:08;;;;;;;1.65;1.55;;;2.60;99.90;;;;;;5065052;28;20213;-64
2022/03/09 01:00:35;;;;;;;1.42;1.42;;;2.60;99.90;;;;;;5072145;28;20286;-63
2022/03/09 01:03:02;;;;;;;1.38;1.30;;;2.60;99.90;;;;;;5071865;28;20265;-65
2022/03/09 01:05:28;;;;;;;1.40;1.40;;;2.60;99.90;;;;;;5072039;28;20683;-64
2022/03/09 01:07:55;;;;;;;1.40;1.30;;;2.60;99.90;;;;;;5072479;28;20567;-64
2022/03/09 01:10:24;;;;;;;1.63;1.52;;;2.60;99.90;;;;;;5072506;28;20256;-64
2022/03/09 01:12:51;;;;;;;1.50;1.50;;;2.60;99.90;;;;;;5072226;28;20203;-64
2022/03/09 01:15:18;;;;;;;1.80;1.70;;;2.50;99.90;;;;;;5071531;28;20302;-64
2022/03/09 01:17:45;;;;;;;1.52;1.50;;;2.60;99.90;;;;;;5072102;28;20207;-64
2022/03/09 01:20:12;;;;;;;1.75;1.65;;;2.50;99.90;;;;;;5072758;28;20203;-63
2022/03/09 01:22:39;;;;;;;1.60;1.50;;;2.50;99.90;;;;;;5085273;28;20349;-64
2022/03/09 01:25:07;;;;;;;1.50;1.50;;;2.50;99.90;;;;;;5079117;28;20235;-64
2022/03/09 01:27:36;;;;;;;1.80;1.70;;;2.50;99.90;;;;;;5079547;28;20636;-64
2022/03/09 01:30:03;;;;;;;1.48;1.40;;;2.50;99.90;;;;;;5075439;28;20294;-64
2022/03/09 01:32:30;;;;;;;1.30;1.30;;;2.50;99.90;;;;;;5072587;28;20282;-64
2022/03/09 01:34:57;;;;;;;1.40;1.40;;;2.50;99.90;;;;;;5072472;28;20219;-64
2022/03/09 01:37:24;;;;;;;1.50;1.40;;;2.50;99.90;;;;;;5072403;28;20253;-64
2022/03/09 01:39:51;;;;;;;1.63;1.52;;;2.40;99.90;;;;;;5072362;28;20290;-64
2022/03/09 01:42:18;;;;;;;1.80;1.70;;;2.30;99.90;;;;;;5071872;28;20238;-63
2022/03/09 01:44:46;;;;;;;2.08;1.60;;;2.20;99.90;;;;;;5071676;28;20231;-64
2022/03/09 01:47:13;;;;;;;1.52;1.48;;;2.20;99.90;;;;;;5071854;28;20557;-63
2022/03/09 01:49:41;;;;;;;1.20;1.20;;;2.10;99.90;;;;;;5071738;28;20294;-65
2022/03/09 01:52:08;;;;;;;1.90;1.60;;;2.10;99.90;;;;;;5071947;28;20294;-64
2022/03/09 01:54:35;;;;;;;1.70;1.60;;;2.10;99.90;;;;;;5071534;28;20669;-64
2022/03/09 01:57:03;;;;;;;1.40;1.40;;;2.10;99.90;;;;;;5072065;28;20234;-64
2022/03/09 01:59:30;;;;;;;1.30;1.30;;;2.00;99.90;;;;;;5087393;28;20238;-63
2022/03/09 02:01:59;;;;;;;1.50;1.45;;;2.00;99.90;;;;;;5073526;28;20315;-65
2022/03/09 02:04:27;;;;;;;1.30;1.30;;;1.90;99.90;;;;;;5063890;28;20238;-64
2022/03/09 02:06:54;;;;;;;1.52;1.48;;;1.80;99.90;;;;;;5073505;28;20203;-65
2022/03/09 02:12:06;;;;;;;1.70;1.60;;;1.80;99.90;;;;;;5077409;28;20229;-63
2022/03/09 02:14:36;;;;;;;1.70;1.60;;;1.70;99.90;;;;;;5077080;28;20707;-64
2022/03/09 02:17:06;;;;;;;1.98;1.63;;;1.70;99.90;;;;;;5087298;28;20617;-63
2022/03/09 02:19:33;;;;;;;1.70;1.60;;;1.70;99.90;;;;;;5072908;28;20230;-64
2022/03/09 02:22:07;;;;;;;1.65;1.55;;;1.60;99.90;;;;;;5071206;28;20310;-63
2022/03/09 02:24:35;;;;;;;1.40;1.40;;;1.60;99.90;;;;;;5071291;28;20656;-64
2022/03/09 02:27:03;;;;;;;1.42;1.35;;;1.50;99.90;;;;;;5073311;28;20748;-65
2022/03/09 02:29:29;;;;;;;1.70;1.60;;;1.50;99.90;;;;;;5075161;28;20203;-64
2022/03/09 02:31:56;;;;;;;1.50;1.50;;;1.50;99.90;;;;;;5074903;28;20231;-64
2022/03/09 02:34:23;;;;;;;1.50;1.50;;;1.40;99.90;;;;;;5074893;28;20245;-64
2022/03/09 02:36:50;;;;;;;1.70;1.60;;;1.50;99.90;;;;;;5074869;28;20719;-63
2022/03/09 02:39:17;;;;;;;1.45;1.45;;;1.40;99.90;;;;;;5075216;28;20235;-64
2022/03/09 02:41:45;;;;;;;1.75;1.65;;;1.30;99.90;;;;;;5074656;28;20289;-64
2022/03/09 02:44:12;;;;;;;1.80;1.70;;;1.40;99.90;;;;;;5073397;28;20223;-64
2022/03/09 02:46:39;;;;;;;1.75;1.65;;;1.40;99.90;;;;;;5075020;28;20630;-64
2022/03/09 02:49:07;;;;;;;1.80;1.70;;;1.40;99.90;;;;;;5074821;28;20207;-65
2022/03/09 02:51:34;;;;;;;1.70;1.60;;;1.50;99.90;;;;;;5074680;28;20290;-64
2022/03/09 02:54:02;;;;;;;1.50;1.50;;;1.30;99.90;;;;;;5065685;28;20228;-64
2022/03/09 02:56:29;;;;;;;1.40;1.40;;;1.30;99.90;;;;;;5074687;28;20294;-64
2022/03/09 02:58:57;;;;;;;1.73;1.63;;;1.30;99.90;;;;;;5074475;28;20270;-64
2022/03/09 03:01:24;;;;;;;1.42;1.40;;;1.30;99.90;;;;;;5069880;28;20294;-63
2022/03/09 03:03:51;;;;;;;1.63;1.55;;;1.30;99.90;;;;;;5074065;28;20223;-63
2022/03/09 03:06:18;;;;;;;1.70;1.60;;;1.20;99.90;;;;;;5075220;28;20302;-64
2022/03/09 03:08:45;;;;;;;1.48;1.48;;;1.20;99.90;;;;;;5076868;28;20246;-64
2022/03/09 03:11:12;;;;;;;1.55;1.50;;;1.30;99.90;;;;;;5074656;28;20291;-63
2022/03/09 03:13:41;;;;;;;1.60;1.50;;;1.30;99.90;;;;;;5074316;28;20310;-63
2022/03/09 03:16:10;;;;;;;1.60;1.50;;;1.30;99.90;;;;;;5074025;28;20239;-64
2022/03/09 03:18:37;;;;;;;1.75;1.65;;;1.30;99.90;;;;;;5074386;28;20373;-65
2022/03/09 03:21:05;;;;;;;1.73;1.63;;;1.40;99.90;;;;;;5074160;28;20223;-64
2022/03/09 03:23:34;;;;;;;1.75;1.65;;;1.30;99.90;;;;;;5073587;28;20285;-64
2022/03/09 03:26:03;;;;;;;1.45;1.40;;;1.30;99.90;;;;;;5073798;28;20772;-64
2022/03/09 03:28:30;;;;;;;1.70;1.60;;;1.30;99.90;;;;;;5074103;28;20203;-64
2022/03/09 03:30:57;;;;;;;1.50;1.50;;;1.30;99.90;;;;;;5074154;28;20218;-64
2022/03/09 03:33:26;;;;;;;1.80;1.70;;;1.20;99.90;;;;;;5074245;28;20230;-64
2022/03/09 03:35:53;;;;;;;1.35;1.35;;;1.20;99.90;;;;;;5074288;28;20200;-63
2022/03/09 03:38:20;;;;;;;1.60;1.50;;;1.20;99.90;;;;;;5075595;28;20628;-64
2022/03/09 03:40:47;;;;;;;1.80;1.70;;;1.20;99.90;;;;;;5074915;28;20685;-63
2022/03/09 03:43:14;;;;;;;1.90;1.80;;;1.10;99.90;;;;;;5074803;28;20314;-64
2022/03/09 03:45:41;;;;;;;1.80;1.70;;;1.10;99.90;;;;;;5074745;28;20203;-63
2022/03/09 03:48:08;;;;;;;1.67;1.60;;;1.20;99.90;;;;;;5075316;28;20199;-63
2022/03/09 03:50:36;;;;;;;1.73;1.63;;;1.10;99.90;;;;;;5074686;28;20329;-65
2022/03/09 03:53:03;;;;;;;2.00;1.90;;;1.00;99.90;;;;;;5074615;28;20250;-64
2022/03/09 03:55:30;;;;;;;1.60;1.50;;;1.00;99.90;;;;;;5087593;28;20211;-63
2022/03/09 03:57:57;;;;;;;1.60;1.50;;;1.00;99.90;;;;;;5092263;28;20207;-64
2022/03/09 04:00:24;;;;;;;1.70;1.60;;;1.00;99.90;;;;;;5090628;28;20203;-65
2022/03/09 04:02:51;;;;;;;1.60;1.50;;;1.00;99.90;;;;;;5086489;28;20612;-64
2022/03/09 04:05:18;;;;;;;1.70;1.60;;;0.90;99.90;;;;;;5076161;28;20294;-65
2022/03/09 04:07:47;;;;;;;1.70;1.60;;;0.90;99.90;;;;;;5089768;28;20203;-64
2022/03/09 04:10:14;;;;;;;1.70;1.60;;;0.80;99.90;;;;;;5075899;28;20238;-64
2022/03/09 04:12:41;;;;;;;1.42;1.42;;;0.80;99.90;;;;;;5080375;28;20258;-65
2022/03/09 04:15:09;;;;;;;1.63;1.52;;;0.80;99.90;;;;;;5085079;28;20741;-64
2022/03/09 04:17:40;;;;;;;1.60;1.50;;;0.80;99.90;;;;;;5073145;28;20290;-63
2022/03/09 04:20:08;;;;;;;1.65;1.55;;;0.80;99.90;;;;;;5073382;28;20203;-64
2022/03/09 04:22:35;;;;;;;1.80;1.70;;;0.80;99.90;;;;;;5072932;28;20223;-65
2022/03/09 04:25:04;;;;;;;1.90;1.80;;;0.70;99.90;;;;;;5072881;28;20249;-63
2022/03/09 04:27:31;;;;;;;1.90;1.80;;;0.70;99.90;;;;;;5072774;28;20204;-63
2022/03/09 04:29:58;;;;;;;2.00;1.48;;;0.70;99.90;;;;;;5073070;28;20234;-63
2022/03/09 04:32:25;;;;;;;1.52;1.48;;;0.60;99.90;;;;;;5073321;28;20286;-64
2022/03/09 04:34:53;;;;;;;1.92;1.83;;;0.70;99.90;;;;;;5073172;28;20241;-64
2022/03/09 04:37:20;;;;;;;1.70;1.60;;;0.70;99.90;;;;;;5073839;28;20203;-64
2022/03/09 04:39:46;;;;;;;1.77;1.67;;;0.60;99.90;;;;;;5075169;28;20214;-63
2022/03/09 04:42:16;;;;;;;1.77;1.67;;;0.50;99.90;;;;;;5074912;28;20275;-63
2022/03/09 04:44:42;;;;;;;1.70;1.60;;;0.50;99.90;;;;;;5074137;28;20259;-65
2022/03/09 04:47:09;;;;;;;1.60;1.50;;;0.50;99.90;;;;;;5072769;28;20286;-64
2022/03/09 04:49:36;;;;;;;1.80;1.70;;;0.40;99.90;;;;;;5072350;28;20566;-63
2022/03/09 04:52:03;;;;;;;1.80;1.70;;;0.40;99.90;;;;;;5072307;28;20270;-64
2022/03/09 04:54:30;;;;;;;1.60;1.50;;;0.40;99.90;;;;;;5072541;28;20223;-64
2022/03/09 04:56:57;;;;;;;1.70;1.60;;;0.40;99.90;;;;;;5072694;28;20231;-64
2022/03/09 04:59:25;;;;;;;1.80;1.70;;;0.40;99.90;;;;;;5072372;28;20286;-64
2022/03/09 05:01:52;;;;;;;1.70;1.60;;;0.30;99.90;;;;;;5072370;28;20294;-64
2022/03/09 05:04:19;;;;;;;1.80;1.70;;;0.40;99.90;;;;;;5072468;28;20227;-64
2022/03/09 05:06:46;;;;;;;2.00;1.90;;;0.40;99.90;;;;;;5072376;28;20235;-64
2022/03/09 05:09:13;;;;;;;1.90;1.80;;;0.40;99.90;;;;;;5072169;28;20300;-63
2022/03/09 05:11:40;;;;;;;1.67;1.58;;;0.40;99.90;;;;;;5072047;28;20253;-63
2022/03/09 05:14:07;;;;;;;2.65;1.52;;;0.40;99.90;;;;;;5072059;28;20219;-64
2022/03/09 05:16:35;;;;;;;1.90;1.80;;;0.40;99.90;;;;;;5072163;28;20229;-63
2022/03/09 05:19:02;;;;;;;1.90;1.80;;;0.40;99.90;;;;;;5072054;28;20230;-64
2022/03/09 05:21:29;;;;;;;1.95;1.85;;;0.40;99.90;;;;;;5072243;28;20622;-64
2022/03/09 05:23:56;;;;;;;1.60;1.50;;;0.50;99.90;;;;;;5072480;28;20272;-64
2022/03/09 05:26:23;;;;;;;1.80;1.70;;;0.40;99.90;;;;;;5072362;28;20294;-64
2022/03/09 05:28:50;;;;;;;1.73;1.63;;;0.40;99.90;;;;;;5078069;28;20331;-64
2022/03/09 05:31:18;;;;;;;1.88;1.77;;;0.40;99.90;;;;;;5084100;28;20210;-64
2022/03/09 05:33:46;;;;;;;1.83;1.73;;;0.40;99.90;;;;;;5073680;28;20247;-65
2022/03/09 05:36:13;;;;;;;1.90;1.80;;;0.50;99.90;;;;;;5072131;28;20669;-64
2022/03/09 05:38:40;;;;;;;1.80;1.70;;;0.50;99.90;;;;;;5072234;28;20643;-64
2022/03/09 05:41:07;;;;;;;2.00;1.85;;;0.40;99.90;;;;;;5072223;28;20211;-64
2022/03/09 05:43:34;;;;;;;1.80;1.70;;;0.40;99.90;;;;;;5071808;28;20237;-64
2022/03/09 05:46:01;;;;;;;1.60;1.60;;;0.50;99.90;;;;;;5074819;28;20260;-63
2022/03/09 05:48:28;;;;;;;2.35;1.77;;;0.40;99.90;;;;;;5076967;28;20210;-64
2022/03/09 05:50:56;;;;;;;1.90;1.80;;;0.40;99.90;;;;;;5076297;28;20243;-64
2022/03/09 05:53:23;;;;;;;1.92;1.83;;;0.40;99.90;;;;;;5076075;28;20281;-64
2022/03/09 05:55:50;;;;;;;1.83;1.73;;;0.30;99.90;;;;;;5074748;28;20298;-64
2022/03/09 05:58:17;;;;;;;1.95;1.77;;;0.30;99.90;;;;;;5074554;28;20227;-64
2022/03/09 06:00:44;;;;;;;1.98;1.80;;;0.30;99.90;;;;;;5072557;28;20207;-64
2022/03/09 06:03:11;;;;;;;1.90;1.80;;;0.40;99.90;;;;;;5078130;28;20242;-66
2022/03/09 06:05:37;;;;;;;1.80;1.70;;;0.50;99.90;;;;;;5076572;28;20199;-65
2022/03/09 06:08:06;;;;;;;2.10;2.00;;;0.40;99.90;;;;;;5073290;28;20267;-65
2022/03/09 06:10:33;;;;;;;1.95;1.85;;;0.40;99.90;;;;;;5097481;28;20195;-65
2022/03/09 06:13:00;;;;;;;2.45;1.90;;;0.50;99.90;;;;;;5093543;28;20258;-63
2022/03/09 06:15:27;;;;;;;2.38;2.20;;;0.50;99.90;;;;;;5084566;28;20204;-65
2022/03/09 06:17:54;;;;;;;1.90;1.80;;;0.50;99.90;;;;;;5076146;28;20274;-66
2022/03/09 06:20:23;;;;;;;2.13;2.00;;;0.60;99.90;;;;;;5079674;28;20199;-65
2022/03/09 06:22:50;;;;;;;3.42;2.20;;;0.60;99.90;;;;;;5075569;28;20199;-64
2022/03/09 06:25:19;;;;;;;2.00;1.90;;;0.60;99.90;;;;;;5075417;28;20581;-67
2022/03/09 06:27:48;;;;;;;2.28;2.03;;;0.60;99.90;;;;;;5074801;28;20238;-65
2022/03/09 06:30:18;;;;;;;1.90;1.80;;;0.60;99.90;;;;;;5072749;28;20206;-65
2022/03/09 06:32:46;;;;;;;1.98;1.88;;;0.70;99.90;;;;;;5075184;28;20203;-65
2022/03/09 06:35:14;;;;;;;2.03;1.92;;;0.80;99.90;;;;;;5074553;28;20199;-65
2022/03/09 06:37:41;;;;;;;2.25;2.15;;;0.90;99.90;;;;;;5074386;28;20291;-66
2022/03/09 06:40:10;;;;;;;2.20;2.10;;;0.70;99.90;;;;;;5074624;28;20208;-65
2022/03/09 06:42:38;;;;;;;1.90;1.80;;;0.70;99.90;;;;;;5076681;28;20711;-64
2022/03/09 06:45:06;;;;;;;2.13;1.95;;;0.70;99.90;;;;;;5080957;28;20230;-65
2022/03/09 06:47:35;;;;;;;2.00;1.90;;;0.80;99.90;;;;;;5077481;28;20673;-65
2022/03/09 06:50:02;;;;;;;2.33;2.22;;;0.80;99.90;;;;;;5075138;28;20696;-65
2022/03/09 06:52:30;;;;;;;1.92;1.83;;;0.80;99.90;;;;;;5071652;28;20215;-65
2022/03/09 06:55:02;;;;;;;2.20;2.10;;;0.80;99.90;;;;;;5077193;28;20310;-64
2022/03/09 06:57:29;;;;;;;2.20;2.10;;;0.80;99.90;;;;;;5075878;28;20207;-65
2022/03/09 06:59:58;;;;;;;1.88;1.77;;;0.90;99.90;;;;;;5074520;28;20199;-65
2022/03/09 07:02:25;;;;;;;2.10;2.00;;;0.90;99.90;;;;;;5074073;28;20199;-64
2022/03/09 07:04:51;;;;;;;2.42;2.13;;;1.00;99.90;;;;;;5073844;28;20219;-65
2022/03/09 07:07:18;;;;;;;2.30;2.20;;;1.10;99.90;;;;;;5074178;28;20215;-65
2022/03/09 07:09:45;;;;;;;2.33;2.22;;;1.20;99.90;;;;;;5073546;28;20283;-65
2022/03/09 07:12:12;;;;;;;2.30;2.20;;;1.40;99.90;;;;;;5073652;28;20294;-65
2022/03/09 07:14:39;;;;;;;2.15;2.05;;;1.40;99.90;;;;;;5073930;28;20230;-66
2022/03/09 07:17:07;;;;;;;2.30;2.20;;;1.50;99.90;;;;;;5073921;28;20238;-64
2022/03/09 07:19:34;;;;;;;2.83;2.20;;;1.50;99.90;;;;;;5074237;28;20231;-64
2022/03/09 07:22:01;;;;;;;2.95;2.38;;;1.70;99.90;;;;;;5074200;28;20215;-65
2022/03/09 07:24:28;;;;;;;2.60;2.40;;;1.80;99.90;;;;;;5073872;28;20689;-66
2022/03/09 07:26:56;;;;;;;2.08;1.98;;;1.90;99.90;;;;;;5075196;28;20203;-66
2022/03/09 07:29:23;;;;;;;2.33;2.13;;;2.00;99.90;;;;;;5073935;28;20283;-66
2022/03/09 07:31:50;;;;;;;1.92;1.83;;;2.10;99.90;;;;;;5073154;28;20661;-65
2022/03/09 07:34:18;;;;;;;2.35;2.20;;;2.20;99.90;;;;;;5073127;28;20215;-66
2022/03/09 07:36:45;;;;;;;2.47;2.28;;;2.40;99.90;;;;;;5074037;28;20238;-66
2022/03/09 07:39:12;;;;;;;2.35;2.25;;;2.50;99.90;;;;;;5073883;28;20199;-65
2022/03/09 07:41:39;;;;;;;2.40;2.20;;;2.60;99.90;;;;;;5073399;28;20289;-66
2022/03/09 07:44:06;;;;;;;2.28;2.08;;;2.70;99.90;;;;;;5073091;28;20238;-65
2022/03/09 07:46:33;;;;;;;2.45;1.98;;;2.80;99.90;;;;;;5074974;28;20269;-65
2022/03/09 07:48:59;;;;;;;2.03;1.92;;;2.90;99.90;;;;;;5075803;28;20207;-66
2022/03/09 07:51:28;;;;;;;2.10;2.00;;;3.00;99.90;;;;;;5073242;28;20294;-66
2022/03/09 07:53:55;;;;;;;2.03;1.80;;;3.20;99.90;;;;;;5070493;28;20246;-64
2022/03/09 07:56:21;;;;;;;2.05;1.95;;;3.40;99.90;;;;;;4968441;28;20214;-65
2022/03/09 07:58:48;;;;;;;2.15;2.05;;;3.50;99.90;;;;;;5064454;28;20286;-66
2022/03/09 08:01:15;;;;;;;1.80;1.70;;;3.70;99.90;;;;;;5073665;28;20199;-66
2022/03/09 08:03:42;;;;;;;1.83;1.73;;;3.90;99.90;;;;;;5074103;28;20308;-67
2022/03/09 08:06:09;;;;;;;2.47;2.38;;;4.00;99.90;;;;;;5085786;28;20214;-66
2022/03/09 08:08:37;;;;;;;2.60;2.45;;;4.10;99.90;;;;;;5078218;28;20199;-65
2022/03/09 08:11:04;;;;;;;2.58;2.47;;;4.10;99.90;;;;;;5076237;28;20219;-67
2022/03/09 08:13:31;;;;;;;2.58;2.38;;;4.10;99.90;;;;;;5074866;28;20227;-66
2022/03/09 08:15:58;;;;;;;2.45;2.25;;;4.10;99.90;;;;;;5080956;28;20661;-66
2022/03/09 08:18:25;;;;;;;2.50;2.40;;;4.20;99.90;;;;;;5073373;28;20375;-64
2022/03/09 08:20:52;;;;;;;2.70;2.50;;;4.30;99.90;;;;;;5072539;28;20199;-66
2022/03/09 08:23:19;;;;;;;2.60;2.50;;;4.40;99.90;;;;;;5072338;28;20254;-66
2022/03/09 08:25:47;;;;;;;3.15;2.55;;;4.60;99.90;;;;;;5072145;28;20258;-65
2022/03/09 08:28:14;;;;;;;2.75;2.55;;;4.60;99.90;;;;;;5072791;28;20305;-65
2022/03/09 08:30:41;;;;;;;2.22;2.13;;;4.80;99.90;;;;;;5072615;28;20214;-65
2022/03/09 08:33:08;;;;;;;2.83;2.63;;;4.90;99.90;;;;;;5072586;28;20227;-66
2022/03/09 08:35:35;;;;;;;2.38;2.28;;;4.90;99.90;;;;;;5072670;28;20291;-64
2022/03/09 08:38:02;;;;;;;2.65;2.50;;;5.00;99.90;;;;;;5072168;28;20733;-65
2022/03/09 08:40:29;;;;;;;2.20;2.10;;;5.10;99.90;;;;;;5072079;28;20298;-65
2022/03/09 08:42:57;;;;;;;2.60;2.45;;;5.20;99.90;;;;;;5072166;28;20213;-66
2022/03/09 08:45:24;;;;;;;2.58;2.47;;;5.30;99.90;;;;;;5072479;28;20661;-65
2022/03/09 08:47:51;;;;;;;2.35;2.15;;;5.30;99.90;;;;;;5072452;28;20292;-66
2022/03/09 08:50:18;;;;;;;2.47;2.20;;;5.30;99.90;;;;;;5072530;28;20231;-66
2022/03/09 08:52:45;;;;;;;2.35;2.25;;;5.20;99.90;;;;;;5072822;28;20204;-66
2022/03/09 08:55:12;;;;;;;2.50;2.40;;;5.50;99.90;;;;;;5072907;28;20203;-64
2022/03/09 08:57:39;;;;;;;2.22;2.13;;;5.50;99.90;;;;;;5072944;28;20199;-66
2022/03/09 09:00:08;;;;;;;2.53;2.42;;;5.60;99.90;;;;;;5072972;28;20290;-66
2022/03/09 09:02:35;;;;;;;2.20;2.00;;;5.90;99.90;;;;;;5072754;28;20207;-66
2022/03/09 09:05:02;;;;;;;2.40;2.20;;;6.10;99.90;;;;;;5075383;28;20257;-66
2022/03/09 09:07:29;;;;;;;2.53;2.33;;;6.10;99.90;;;;;;5075480;28;20317;-67
2022/03/09 09:09:55;;;;;;;2.28;2.17;;;6.10;99.90;;;;;;5080438;28;20271;-65
2022/03/09 09:12:22;;;;;;;2.35;2.25;;;6.10;99.90;;;;;;5085135;28;20290;-66
2022/03/09 09:14:49;;;;;;;2.78;2.50;;;6.10;99.90;;;;;;5072004;28;20265;-66
2022/03/09 09:17:17;;;;;;;3.05;2.78;;;6.50;99.90;;;;;;5072209;28;20347;-66
2022/03/09 09:19:44;;;;;;;2.75;2.58;;;6.60;99.90;;;;;;5071803;28;20203;-66
2022/03/09 09:22:12;;;;;;;2.50;2.38;;;6.90;99.90;;;;;;5072006;28;20203;-64
2022/03/09 09:24:39;;;;;;;2.53;2.42;;;7.00;99.90;;;;;;5071967;28;20256;-64
2022/03/09 09:27:06;;;;;;;3.10;2.90;;;7.10;99.90;;;;;;5072463;28;20294;-66
2022/03/09 09:29:32;;;;;;;2.50;2.40;;;7.30;99.90;;;;;;5072016;28;20215;-66
2022/03/09 09:32:00;;;;;;;2.70;2.50;;;7.20;99.90;;;;;;5071991;28;20209;-66
2022/03/09 09:34:28;;;;;;;2.83;2.63;;;7.40;99.90;;;;;;5072336;28;20226;-65
2022/03/09 09:36:55;;;;;;;2.50;2.40;;;7.50;99.90;;;;;;5076808;28;20207;-65
2022/03/09 09:39:23;;;;;;;2.63;2.53;;;7.60;99.90;;;;;;5076543;28;20225;-64
2022/03/09 09:41:52;;;;;;;2.80;2.60;;;7.50;99.90;;;;;;5075949;28;20293;-65
2022/03/09 09:44:23;;;;;;;2.63;2.53;;;7.50;99.90;;;;;;5075538;28;20227;-66
2022/03/09 09:46:51;;;;;;;3.00;2.80;;;7.70;99.90;;;;;;5075772;28;20264;-65
2022/03/09 09:49:23;;;;;;;3.30;3.10;;;7.90;99.90;;;;;;5071759;28;20682;-66
2022/03/09 09:51:53;;;;;;;3.03;2.83;;;7.90;99.90;;;;;;5076095;28;20251;-66
2022/03/09 09:54:22;;;;;;;3.10;2.90;;;8.00;99.90;;;;;;5075585;28;20241;-65
2022/03/09 09:56:49;;;;;;;3.20;3.00;;;8.10;99.90;;;;;;5076932;28;20207;-65
2022/03/09 09:59:16;;;;;;;3.10;2.90;;;8.20;99.90;;;;;;5080910;28;20293;-64
2022/03/09 10:01:43;;;;;;;3.30;3.00;;;8.30;99.90;;;;;;5088944;28;20199;-66
2022/03/09 10:04:10;;;;;;;3.30;3.10;;;8.40;99.90;;;;;;5087257;28;20223;-66
2022/03/09 10:06:37;;;;;;;2.80;2.70;;;8.30;99.90;;;;;;5079399;28;20267;-67
2022/03/09 10:09:07;;;;;;;3.40;3.20;;;8.50;99.90;;;;;;5079296;28;20294;-65
2022/03/09 10:11:46;;;;;;;3.28;3.08;;;8.70;99.90;;;;;;5077094;28;20198;-66
2022/03/09 10:14:13;;;;;;;3.30;3.00;;;8.90;99.90;;;;;;5076209;28;20222;-66
2022/03/09 10:17:01;;;;;;;2.80;2.70;;;9.00;99.90;;;;;;5077627;28;20297;-66
2022/03/09 10:19:33;;;;;;;3.42;3.13;;;9.10;99.90;;;;;;5077319;28;20204;-65
2022/03/09 10:22:25;;;;;;;3.45;3.25;;;9.10;99.90;;;;;;5087207;28;20218;-64
2022/03/09 10:24:55;;;;;;;3.55;3.25;;;9.10;99.90;;;;;;5074853;28;20625;-64
2022/03/09 10:27:37;;;;;;;3.13;2.92;;;9.30;99.90;;;;;;5075287;28;20203;-65
2022/03/09 10:30:06;;;;;;;3.67;3.47;;;9.30;99.90;;;;;;5075321;28;20237;-65
2022/03/09 10:32:47;;;;;;;3.53;3.30;;;9.40;99.90;;;;;;5074800;28;20206;-65
2022/03/09 10:35:16;;;;;;;3.47;3.28;;;9.40;99.90;;;;;;5074837;28;20235;-65
2022/03/09 10:37:44;;;;;;;3.40;3.20;;;9.40;99.90;;;;;;5075558;28;20211;-67
2022/03/09 10:40:16;;;;;;;3.17;2.90;;;9.60;99.90;;;;;;5075192;28;20298;-66
2022/03/09 10:42:42;;;;;;;3.28;3.08;;;9.90;99.90;;;;;;5075342;28;20194;-66
2022/03/09 10:45:10;;;;;;;3.50;3.20;;;10.00;99.90;;;;;;5074878;28;20219;-66
2022/03/09 10:47:39;;;;;;;3.00;2.80;;;10.10;99.90;;;;;;5073760;28;20206;-66
2022/03/09 10:50:17;;;;;;;3.40;3.10;;;10.40;99.90;;;;;;5075199;28;20204;-65
2022/03/09 10:52:46;;;;;;;3.17;2.97;;;10.40;99.80;;;;;;5074848;28;20207;-66
2022/03/09 10:55:29;;;;;;;3.40;3.20;;;10.30;99.80;;;;;;5075441;28;20203;-66
2022/03/09 10:58:14;;;;;;;3.25;3.05;;;10.30;99.60;;;;;;5077834;28;20207;-65
2022/03/09 11:00:43;;;;;;;3.17;3.03;;;10.40;99.50;;;;;;5075079;28;20252;-65
2022/03/09 11:03:12;;;;;;;3.28;3.08;;;10.50;99.60;;;;;;5074786;28;20231;-65
2022/03/09 11:05:50;;;;;;;3.90;3.70;;;10.60;99.20;;;;;;5075669;28;20219;-65
2022/03/09 11:08:17;;;;;;;3.33;3.13;;;10.60;99.00;;;;;;5074728;28;20188;-67
2022/03/09 11:10:46;;;;;;;4.03;3.53;;;10.70;99.20;;;;;;5074598;28;20294;-65
2022/03/09 11:13:15;;;;;;;3.47;3.28;;;10.90;99.10;;;;;;5074586;28;20223;-65
2022/03/09 11:15:43;;;;;;;3.22;3.13;;;10.90;99.10;;;;;;5073767;28;20204;-66
2022/03/09 11:18:13;;;;;;;3.42;3.20;;;11.00;98.80;;;;;;5074203;28;20608;-65
2022/03/09 11:20:40;;;;;;;3.55;3.35;;;11.00;98.50;;;;;;5074039;28;20214;-64
2022/03/09 11:23:07;;;;;;;3.70;3.50;;;11.00;98.40;;;;;;5074689;28;20250;-66
2022/03/09 11:25:36;;;;;;;3.80;3.60;;;11.10;98.70;;;;;;5074145;28;20753;-66
2022/03/09 11:28:05;;;;;;;3.88;3.67;;;11.20;98.70;;;;;;5075573;28;20242;-66
2022/03/09 11:30:34;;;;;;;3.97;3.63;;;11.30;98.90;;;;;;5081684;28;20246;-66
2022/03/09 11:33:01;;;;;;;3.70;3.40;;;11.30;98.90;;;;;;5075395;28;20705;-65
2022/03/09 11:35:34;;;;;;;3.55;3.35;;;11.30;98.50;;;;;;5074641;28;20203;-65
2022/03/09 11:38:01;;;;;;;3.80;3.60;;;11.40;98.70;;;;;;5074542;28;20203;-66
2022/03/09 11:40:28;;;;;;;3.90;3.70;;;11.50;98.50;;;;;;5080974;28;20203;-66
2022/03/09 11:42:55;;;;;;;3.65;3.45;;;11.50;98.20;;;;;;5078933;28;20314;-66
2022/03/09 11:45:33;;;;;;;3.60;3.40;;;11.50;98.10;;;;;;5074625;28;20222;-66
2022/03/09 11:48:03;;;;;;;3.72;3.53;;;11.60;97.70;;;;;;5075217;28;20203;-65
2022/03/09 11:50:32;;;;;;;3.50;3.30;;;11.60;97.80;;;;;;5074082;28;20192;-65
2022/03/09 11:53:01;;;;;;;4.10;3.90;;;11.60;97.90;;;;;;5074223;28;20223;-65
2022/03/09 11:55:29;;;;;;;3.58;3.38;;;11.70;98.40;;;;;;5082936;28;20593;-66
2022/03/09 11:58:08;;;;;;;3.63;3.42;;;11.90;98.50;;;;;;5086404;28;20225;-66
2022/03/09 12:00:37;;;;;;;3.47;3.28;;;11.80;98.20;;;;;;5086839;28;20195;-66
2022/03/09 12:03:04;;;;;;;4.00;3.70;;;11.90;98.30;;;;;;5084365;28;20307;-64
2022/03/09 12:05:42;;;;;;;3.60;3.40;;;12.00;98.20;;;;;;5083645;28;20250;-65
2022/03/09 12:08:10;;;;;;;3.95;3.75;;;12.10;97.70;;;;;;5084551;28;20218;-66
2022/03/09 12:10:51;;;;;;;4.18;3.97;;;12.00;97.60;;;;;;5083424;28;20239;-65
2022/03/09 12:13:33;;;;;;;4.55;4.25;;;11.90;97.10;;;;;;5082337;28;20255;-66
2022/03/09 12:16:19;;;;;;;4.28;4.07;;;12.00;97.60;;;;;;5082361;28;20669;-65
2022/03/09 12:18:52;;;;;;;4.72;4.30;;;12.00;97.00;;;;;;5083313;28;20184;-67
2022/03/09 12:21:42;;;;;;;4.18;3.88;;;12.10;97.40;;;;;;5074912;28;20198;-65
2022/03/09 12:24:29;;;;;;;4.03;3.83;;;12.10;97.60;;;;;;5073835;28;20234;-66
2022/03/09 12:26:56;;;;;;;4.10;3.90;;;12.30;97.10;;;;;;5085344;28;20215;-66
2022/03/09 12:29:41;;;;;;;4.50;4.10;;;12.40;97.30;;;;;;5074816;28;20274;-65
2022/03/09 12:32:12;;;;;;;3.95;3.75;;;12.30;96.70;;;;;;5073745;28;20290;-65
2022/03/09 12:34:41;;;;;;;4.05;3.75;;;12.20;97.30;;;;;;5073942;28;20273;-66
2022/03/09 12:37:11;;;;;;;4.30;4.00;;;12.30;97.50;;;;;;5073073;28;20765;-66
2022/03/09 12:39:39;;;;;;;4.43;4.22;;;12.50;97.60;;;;;;5073032;28;20235;-66
2022/03/09 12:42:07;;;;;;;4.53;4.22;;;12.60;97.90;;;;;;5072777;28;20298;-65
2022/03/09 12:44:36;;;;;;;4.40;4.10;;;12.70;97.10;;;;;;5073232;28;20254;-65
2022/03/09 12:47:05;;;;;;;4.45;4.18;;;12.70;97.20;;;;;;5073070;28;20233;-67
2022/03/09 12:49:36;;;;;;;4.60;4.40;;;12.80;97.50;;;;;;5072733;28;20250;-65
2022/03/09 12:52:09;;;;;;;4.78;4.47;;;12.90;97.10;;;;;;5073493;28;20223;-64
2022/03/09 12:54:42;;;;;;;4.40;4.18;;;12.90;97.00;;;;;;5073612;28;20259;-66
2022/03/09 12:57:11;;;;;;;4.15;3.95;;;13.00;97.20;;;;;;5073214;28;20618;-67
2022/03/09 12:59:39;;;;;;;4.22;4.03;;;13.10;97.50;;;;;;5072677;28;20207;-66
2022/03/09 13:02:07;;;;;;;4.20;4.00;;;13.10;97.00;;;;;;5072792;28;20218;-65
2022/03/09 13:04:35;;;;;;;4.68;4.38;;;13.30;97.30;;;;;;5072283;28;20776;-65
2022/03/09 13:07:13;;;;;;;4.43;4.13;;;13.40;96.90;;;;;;5074127;28;20306;-65
2022/03/09 13:09:41;;;;;;;4.70;4.40;;;13.30;96.60;;;;;;5073764;28;20256;-65
2022/03/09 13:12:10;;;;;;;4.60;4.40;;;13.20;96.70;;;;;;5075792;28;20595;-66
2022/03/09 13:14:41;;;;;;;4.20;4.00;;;13.30;97.10;;;;;;5073750;28;20235;-64
2022/03/09 13:17:09;;;;;;;4.50;4.30;;;13.50;97.20;;;;;;5071752;28;20627;-66
2022/03/09 13:19:39;;;;;;;4.90;4.60;;;13.60;97.10;;;;;;5072537;28;20199;-64
2022/03/09 13:22:07;;;;;;;4.57;4.28;;;13.70;97.20;;;;;;5071512;28;20658;-66
2022/03/09 13:24:35;;;;;;;4.57;4.38;;;13.80;97.30;;;;;;5071476;28;20233;-66
2022/03/09 13:27:16;;;;;;;4.85;4.63;;;13.70;96.90;;;;;;5072380;28;20227;-65
2022/03/09 13:29:44;;;;;;;4.93;4.55;;;13.90;96.90;;;;;;5071686;28;20211;-65
2022/03/09 13:32:11;;;;;;;4.78;4.47;;;14.00;96.90;;;;;;5071945;28;20584;-65
2022/03/09 13:34:45;;;;;;;4.25;4.05;;;13.90;96.50;;;;;;5071447;28;20705;-66
2022/03/09 13:37:18;;;;;;;4.65;4.45;;;13.90;96.90;;;;;;5071989;28;20202;-64
2022/03/09 13:39:46;;;;;;;4.50;4.20;;;13.90;96.80;;;;;;5071912;28;20317;-66
2022/03/09 13:42:23;;;;;;;4.68;4.38;;;14.00;97.20;;;;;;5071460;28;20246;-65
2022/03/09 13:45:06;;;;;;;4.72;4.43;;;14.10;97.10;;;;;;5071770;28;20637;-68
2022/03/09 13:47:44;;;;;;;5.00;4.70;;;14.20;97.00;;;;;;5069770;28;20295;-65
2022/03/09 13:50:19;;;;;;;4.38;4.18;;;14.10;97.10;;;;;;5072035;28;20205;-65
2022/03/09 13:52:46;;;;;;;4.78;4.47;;;14.30;97.20;;;;;;5075171;28;20229;-67
2022/03/09 13:55:20;;;;;;;4.15;3.95;;;14.30;97.20;;;;;;5086598;28;20229;-65